Terminal Aerodrome Forecast
Issued by NWS Cleveland, OH

Home | Current Version | Previous Version | Graphics & Text | Print | Product List | Glossary On
Versions: 1 2 3 4 5 6 7 8 9 10 11 12 13 14 15 16 17 18
000
FTUS41 KCLE 171600 AAB
TAFYNG
TAF AMD
KYNG 171612Z 1716/1812 35004KT P6SM SCT020 BKN080
     FM171900 35007KT P6SM BKN040
     FM180900 VRB03KT 5SM BR SCT080=

USA.gov is the U.S. government's official web portal to all federal, state and local government web resources and services.